Time;durP1;ratioP1;P1;durP2;ratioP2;P2;SDS_P1;SDS_P2;PMS_P1;PMS_P2;Temp;Humidity;BMP_temperature;BMP_pressure;BME280_temperature;BME280_humidity;BME280_pressure;Samples;Min_cycle;Max_cycle;Signal;HPM_P1;HPM_P2
2021/03/27 00:01:55;;;;;;;85.25;37.70;;;;;;;1.59;71.60;100959.62;1653660;87;21193;-60
2021/03/27 00:04:43;;;;;;;73.15;32.25;;;;;;;1.60;71.68;100959.17;1653007;87;21347;-58
2021/03/27 00:07:50;;;;;;;60.63;26.93;;;;;;;1.59;71.76;100954.45;1654473;87;21296;-58
2021/03/27 00:10:49;;;;;;;57.35;26.93;;;;;;;1.60;71.92;100959.98;1653011;87;21176;-58
2021/03/27 00:13:36;;;;;;;50.43;23.45;;;;;;;1.62;72.05;100956.08;1653306;87;21757;-58
2021/03/27 00:16:22;;;;;;;53.92;26.33;;;;;;;1.63;72.09;100958.58;1654433;87;21153;-59
2021/03/27 00:19:09;;;;;;;65.00;27.85;;;;;;;1.62;72.20;100962.08;1653817;87;21312;-60
2021/03/27 00:21:46;;;;;;;68.85;30.50;;;;;;;1.62;72.40;100959.50;1653834;87;21185;-58
2021/03/27 00:24:30;;;;;;;54.53;26.55;;;;;;;1.64;72.46;100965.44;1632768;87;21252;-58
2021/03/27 00:27:17;;;;;;;55.38;25.05;;;;;;;1.64;72.45;100966.73;1654678;87;21208;-58
2021/03/27 00:29:56;;;;;;;54.88;25.15;;;;;;;1.65;72.51;100968.39;1653110;87;21375;-60
2021/03/27 00:32:33;;;;;;;62.50;27.70;;;;;;;1.65;72.57;100963.22;1653357;87;21221;-60
2021/03/27 00:35:17;;;;;;;56.10;26.25;;;;;;;1.65;72.59;100967.09;1639896;87;21320;-59
2021/03/27 00:37:50;;;;;;;55.80;24.77;;;;;;;1.65;72.63;100974.84;1641337;87;21295;-60
2021/03/27 00:40:25;;;;;;;53.13;24.72;;;;;;;1.64;72.68;100973.63;1643704;87;21787;-59
2021/03/27 00:43:03;;;;;;;47.62;19.95;;;;;;;1.63;72.65;100975.80;1641993;87;21280;-59
2021/03/27 00:45:48;;;;;;;40.40;18.73;;;;;;;1.64;72.68;100979.63;1642755;87;21296;-59
2021/03/27 00:48:26;;;;;;;40.85;18.52;;;;;;;1.63;72.72;100979.23;1642270;87;21312;-59
2021/03/27 00:51:02;;;;;;;43.87;19.40;;;;;;;1.63;72.77;100980.52;1642483;87;21335;-59
2021/03/27 00:53:42;;;;;;;40.15;18.02;;;;;;;1.61;72.77;100981.04;1625601;87;21350;-60
2021/03/27 00:56:47;;;;;;;37.28;17.07;;;;;;;1.60;72.77;100984.50;1617405;89;21165;-59
2021/03/27 00:59:51;;;;;;;31.52;16.60;;;;;;;1.56;72.67;100982.96;1617130;89;21216;-60
2021/03/27 01:02:27;;;;;;;37.73;16.57;;;;;;;1.51;72.68;100983.59;1615771;88;21204;-59
2021/03/27 01:05:05;;;;;;;39.45;19.02;;;;;;;1.48;72.69;100988.86;1571789;91;21316;-59
2021/03/27 01:07:42;;;;;;;60.70;27.52;;;;;;;1.47;72.73;100984.62;1601426;87;21268;-59
2021/03/27 01:10:44;;;;;;;76.60;34.18;;;;;;;1.44;72.60;100989.90;1650072;85;21227;-60
2021/03/27 01:13:33;;;;;;;83.35;38.90;;;;;;;1.38;72.42;100994.47;1639314;87;21265;-58
2021/03/27 01:16:08;;;;;;;92.53;41.40;;;;;;;1.33;72.46;100992.07;1613889;89;22180;-60
2021/03/27 01:18:51;;;;;;;117.45;46.15;;;;;;;1.30;72.43;100996.90;1624078;87;21212;-62
2021/03/27 01:21:34;;;;;;;119.22;49.18;;;;;;;1.28;72.28;100991.41;1641741;87;21149;-59
2021/03/27 01:24:14;;;;;;;129.05;52.30;;;;;;;1.19;72.01;100997.78;1643201;87;21324;-58
2021/03/27 01:26:59;;;;;;;138.10;55.92;;;;;;;1.12;71.73;100999.35;1643369;87;21569;-59
2021/03/27 01:29:37;;;;;;;296.75;100.82;;;;;;;1.01;71.61;100999.75;1642899;87;21196;-62
2021/03/27 01:32:32;;;;;;;268.75;96.17;;;;;;;0.93;71.71;100998.36;1642565;87;21351;-60
2021/03/27 01:35:19;;;;;;;261.80;93.58;;;;;;;0.86;71.99;101003.36;1638167;87;21370;-60
2021/03/27 01:37:56;;;;;;;271.55;97.70;;;;;;;0.84;72.53;101003.39;1658049;86;21406;-59
2021/03/27 01:40:53;;;;;;;225.43;83.12;;;;;;;0.87;72.66;101003.73;1613292;88;21345;-61
2021/03/27 01:43:35;;;;;;;128.55;56.80;;;;;;;0.86;72.56;100999.02;1643091;87;21320;-60
2021/03/27 01:46:32;;;;;;;217.95;85.42;;;;;;;0.83;72.23;101009.47;1643145;87;21743;-58
2021/03/27 01:49:43;;;;;;;151.90;64.37;;;;;;;0.78;71.95;101010.52;1650163;86;21716;-58
2021/03/27 01:52:42;;;;;;;105.22;44.63;;;;;;;0.71;71.90;101012.93;1614755;89;21194;-58
2021/03/27 01:55:52;;;;;;;80.50;35.08;;;;;;;0.63;72.26;101010.63;1647989;86;21732;-59
2021/03/27 01:58:55;;;;;;;58.02;26.30;;;;;;;0.61;72.69;101012.42;1654493;86;21326;-58
2021/03/27 02:01:37;;;;;;;64.92;29.45;;;;;;;0.62;73.08;101014.12;1680400;84;21232;-58
2021/03/27 02:04:24;;;;;;;64.97;29.60;;;;;;;0.66;73.33;101010.52;1682510;85;21201;-59
2021/03/27 02:07:06;;;;;;;59.50;26.12;;;;;;;0.70;73.36;101010.80;1682277;85;21304;-58
2021/03/27 02:09:50;;;;;;;63.33;28.85;;;;;;;0.69;73.35;101011.23;1661006;85;21779;-58
2021/03/27 02:12:52;;;;;;;59.40;26.30;;;;;;;0.68;73.34;101013.44;1682577;85;21795;-58
2021/03/27 02:16:03;;;;;;;46.37;23.47;;;;;;;0.67;73.19;101015.61;1681937;85;21405;-58
2021/03/27 02:18:58;;;;;;;42.43;21.27;;;;;;;0.63;73.04;101015.78;1681042;85;21815;-58
2021/03/27 02:21:54;;;;;;;55.90;26.37;;;;;;;0.54;72.95;101011.81;1681825;85;21886;-58
2021/03/27 02:24:56;;;;;;;89.37;38.85;;;;;;;0.50;73.00;101020.99;1680761;85;21158;-58
2021/03/27 02:27:54;;;;;;;157.40;68.02;;;;;;;0.46;72.82;101020.69;1682447;85;21276;-58
2021/03/27 02:30:40;;;;;;;126.90;53.92;;;;;;;0.38;72.68;101015.80;1681997;85;21299;-58
2021/03/27 02:33:53;;;;;;;179.45;77.87;;;;;;;0.33;72.69;101019.45;1681909;85;21280;-58
2021/03/27 02:36:52;;;;;;;101.78;42.80;;;;;;;0.26;72.61;101015.41;1681615;85;21302;-59
2021/03/27 02:39:45;;;;;;;70.62;31.52;;;;;;;0.16;72.67;101013.59;1678792;85;21295;-59
2021/03/27 02:42:37;;;;;;;61.18;28.05;;;;;;;0.15;73.15;101018.77;1682465;85;21275;-58
2021/03/27 02:45:14;;;;;;;49.27;22.40;;;;;;;0.15;73.20;101018.33;1680863;85;21403;-58
2021/03/27 02:48:02;;;;;;;46.90;21.35;;;;;;;0.13;73.19;101019.28;1682238;83;21185;-59
2021/03/27 02:51:18;;;;;;;66.87;28.15;;;;;;;0.10;73.26;101016.36;1682108;85;21331;-58
2021/03/27 02:54:26;;;;;;;62.23;27.17;;;;;;;0.05;73.30;101011.80;1661034;86;21828;-58
2021/03/27 02:57:12;;;;;;;54.05;23.73;;;;;;;0.05;73.44;101016.14;1660346;86;21185;-59
2021/03/27 03:00:21;;;;;;;49.38;24.23;;;;;;;0.05;73.45;101019.53;1676289;85;21347;-59
2021/03/27 03:03:05;;;;;;;56.98;26.93;;;;;;;0.08;73.52;101018.59;1680959;85;21789;-59
2021/03/27 03:05:50;;;;;;;55.65;26.97;;;;;;;0.07;73.41;101017.77;1681028;85;21188;-58
2021/03/27 03:08:47;;;;;;;52.85;25.45;;;;;;;0.08;73.40;101023.30;1682787;85;21853;-58
2021/03/27 03:11:44;;;;;;;37.45;19.65;;;;;;;0.08;73.36;101023.30;1681069;85;21212;-59
2021/03/27 03:14:34;;;;;;;35.10;17.30;;;;;;;0.06;73.38;101028.95;1667857;85;21224;-58
2021/03/27 03:17:26;;;;;;;40.73;17.07;;;;;;;0.01;73.35;101034.69;1682013;85;21881;-59
2021/03/27 03:20:51;;;;;;;33.48;17.10;;;;;;;-0.03;73.71;101045.55;1682177;85;21728;-59
2021/03/27 03:23:35;;;;;;;35.00;17.73;;;;;;;-0.01;74.01;101041.19;1682703;85;21401;-58
2021/03/27 03:26:28;;;;;;;41.55;19.65;;;;;;;0.03;74.05;101044.48;1682498;85;21348;-59
2021/03/27 03:29:28;;;;;;;44.13;20.35;;;;;;;0.02;74.03;101049.70;1682286;85;21312;-58
2021/03/27 03:32:12;;;;;;;39.42;19.12;;;;;;;0.03;74.12;101050.92;1669366;85;21181;-58
2021/03/27 03:35:22;;;;;;;52.67;22.27;;;;;;;0.16;74.25;101054.78;1681593;85;21283;-60
2021/03/27 03:38:21;;;;;;;46.48;23.50;;;;;;;0.39;74.13;101056.56;1680995;85;21241;-59
2021/03/27 03:41:10;;;;;;;108.97;41.08;;;;;;;0.62;74.02;101064.36;1682385;85;21784;-60
2021/03/27 03:43:58;;;;;;;86.35;34.43;;;;;;;0.89;73.64;101061.22;1682163;85;21783;-61
2021/03/27 03:47:02;;;;;;;77.97;33.92;;;;;;;1.26;73.11;101062.85;1682247;85;21875;-59
2021/03/27 03:50:14;;;;;;;74.27;31.82;;;;;;;1.63;72.31;101064.40;1682384;85;21361;-59
2021/03/27 03:53:04;;;;;;;53.63;22.87;;;;;;;2.08;71.49;101060.89;1681366;85;21344;-62
2021/03/27 03:55:45;;;;;;;58.05;22.65;;;;;;;2.73;70.27;101055.04;1681132;85;21202;-59
2021/03/27 03:58:57;;;;;;;138.45;57.10;;;;;;;3.26;68.88;101057.36;1681031;85;21220;-59
2021/03/27 04:01:53;;;;;;;73.35;31.60;;;;;;;3.64;67.79;101062.49;1675057;85;21315;-61
2021/03/27 04:04:33;;;;;;;48.13;22.87;;;;;;;4.17;66.41;101058.15;1654701;87;21299;-59
2021/03/27 04:07:12;;;;;;;40.52;20.62;;;;;;;4.73;64.76;101056.55;1654914;87;22201;-61
2021/03/27 04:10:01;;;;;;;45.83;22.85;;;;;;;5.29;63.06;101055.70;1655423;87;21323;-63
2021/03/27 04:13:02;;;;;;;37.50;21.12;;;;;;;5.85;61.29;101046.07;1654978;87;21355;-59
2021/03/27 04:15:55;;;;;;;39.30;19.92;;;;;;;6.44;59.62;101049.59;1654138;87;21192;-62
2021/03/27 04:18:50;;;;;;;61.35;29.85;;;;;;;7.01;57.84;101053.89;1648339;86;21288;-60
2021/03/27 04:21:40;;;;;;;52.15;27.37;;;;;;;7.49;56.07;101046.09;1656234;86;21360;-62
2021/03/27 04:24:27;;;;;;;45.05;24.75;;;;;;;7.89;54.78;101049.12;1655098;87;21759;-63
2021/03/27 04:27:07;;;;;;;37.60;22.17;;;;;;;8.31;53.70;101053.30;1655632;86;21806;-62
2021/03/27 04:30:11;;;;;;;43.63;22.60;;;;;;;8.68;52.38;101055.12;1649194;87;21673;-61
2021/03/27 04:33:08;;;;;;;40.28;20.45;;;;;;;8.98;51.74;101056.07;1654222;87;21338;-63
2021/03/27 04:35:57;;;;;;;38.15;19.75;;;;;;;9.37;50.58;101058.98;1654531;86;21295;-63
2021/03/27 04:38:51;;;;;;;38.38;20.50;;;;;;;9.80;49.84;101050.19;1656294;85;21287;-63
2021/03/27 04:41:38;;;;;;;31.90;16.62;;;;;;;10.21;48.38;101046.70;1656794;85;21271;-62
2021/03/27 04:44:33;;;;;;;45.63;23.70;;;;;;;10.70;47.66;101050.36;1655389;87;21164;-63
2021/03/27 04:47:23;;;;;;;61.92;33.35;;;;;;;11.19;46.37;101054.79;1656256;85;21334;-62
2021/03/27 04:50:21;;;;;;;49.08;25.97;;;;;;;11.47;45.14;101057.36;1652632;85;21334;-62
2021/03/27 04:53:01;;;;;;;46.15;24.98;;;;;;;11.10;45.00;101067.78;1654741;87;21303;-60
2021/03/27 04:55:38;;;;;;;31.87;19.95;;;;;;;10.42;45.80;101064.72;1655911;85;21165;-62
2021/03/27 04:58:31;;;;;;;33.48;18.70;;;;;;;9.89;46.88;101071.27;1654720;87;21300;-62
2021/03/27 05:01:27;;;;;;;32.05;17.85;;;;;;;9.49;47.55;101081.63;1656009;85;21243;-62
2021/03/27 05:04:27;;;;;;;28.90;16.80;;;;;;;9.15;48.50;101087.55;1641968;87;21324;-62
2021/03/27 05:07:12;;;;;;;30.43;17.00;;;;;;;8.97;49.25;101086.22;1653980;87;21222;-63
2021/03/27 05:10:09;;;;;;;31.07;16.97;;;;;;;8.82;49.71;101086.80;1655135;87;21718;-63
2021/03/27 05:13:19;;;;;;;35.15;17.85;;;;;;;8.84;50.23;101091.94;1655302;86;21291;-63
2021/03/27 05:16:18;;;;;;;32.50;17.48;;;;;;;9.01;50.36;101090.28;1654027;85;21161;-63
2021/03/27 05:19:21;;;;;;;29.42;17.23;;;;;;;9.30;49.82;101088.63;1654692;87;21283;-64
2021/03/27 05:22:17;;;;;;;34.88;17.20;;;;;;;9.77;49.24;101091.77;1654248;85;21279;-63
2021/03/27 05:25:07;;;;;;;129.10;22.20;;;;;;;10.75;48.18;101094.06;1655239;87;21287;-63
2021/03/27 05:28:02;;;;;;;26.65;15.95;;;;;;;11.74;46.68;101093.70;1655966;84;21238;-64
2021/03/27 05:30:58;;;;;;;;;;;;;;;12.76;44.89;101088.20;1657767;87;21297;-62
2021/03/27 05:33:36;;;;;;;33.45;20.17;;;;;;;13.82;43.09;101097.34;1656323;86;20689;-64
2021/03/27 05:36:43;;;;;;;37.88;24.37;;;;;;;14.75;41.12;101095.81;1648134;85;21326;-62
2021/03/27 05:39:35;;;;;;;23.60;13.62;;;;;;;15.19;39.72;101091.14;1652952;85;21321;-64
2021/03/27 05:43:02;;;;;;;24.82;13.22;;;;;;;15.34;38.48;101097.61;1655568;87;21315;-65
2021/03/27 05:46:30;;;;;;;22.55;13.05;;;;;;;15.64;38.57;101099.64;1654893;87;21224;-66
2021/03/27 05:49:45;;;;;;;19.82;13.03;;;;;;;16.17;37.18;101101.82;1655373;85;21224;-64
2021/03/27 05:52:28;;;;;;;22.65;13.90;;;;;;;16.36;36.71;101100.85;1655306;87;21318;-65
2021/03/27 05:55:29;;;;;;;32.10;19.17;;;;;;;16.25;36.46;101106.35;1649002;86;21295;-64
2021/03/27 05:58:46;;;;;;;22.70;14.47;;;;;;;16.10;36.86;101104.73;1654073;87;21798;-62
2021/03/27 06:01:29;;;;;;;36.88;22.55;;;;;;;15.89;36.84;101111.63;1655402;86;21229;-63
2021/03/27 06:04:25;;;;;;;21.90;14.60;;;;;;;15.61;37.30;101110.02;1654278;86;21294;-62
2021/03/27 06:07:47;;;;;;;23.77;12.15;;;;;;;15.57;37.29;101113.90;1654692;86;21540;-62
2021/03/27 06:10:37;;;;;;;19.73;12.33;;;;;;;15.48;37.10;101115.63;1653463;87;21181;-61
2021/03/27 06:13:26;;;;;;;19.95;12.93;;;;;;;15.34;37.15;101121.84;1655733;86;21141;-62
2021/03/27 06:16:55;;;;;;;19.00;11.30;;;;;;;15.27;37.04;101124.72;1653566;87;21211;-62
2021/03/27 06:20:09;;;;;;;20.00;10.68;;;;;;;15.16;36.76;101125.75;1654869;85;21783;-65
2021/03/27 06:23:22;;;;;;;18.82;10.50;;;;;;;14.96;36.95;101129.89;1655255;87;21271;-63
2021/03/27 06:26:32;;;;;;;20.43;12.00;;;;;;;14.78;37.09;101129.80;1654035;86;21308;-64
2021/03/27 06:29:32;;;;;;;22.15;13.95;;;;;;;14.64;37.19;101132.37;1655183;87;21284;-62
2021/03/27 06:32:44;;;;;;;29.67;18.95;;;;;;;14.39;37.25;101131.65;1654573;86;22129;-62
2021/03/27 06:35:39;;;;;;;20.25;12.82;;;;;;;14.17;37.76;101139.78;1653459;85;21173;-63
2021/03/27 06:38:29;;;;;;;19.62;12.85;;;;;;;14.13;38.14;101135.29;1655524;86;21153;-63
2021/03/27 06:41:42;;;;;;;28.32;16.52;;;;;;;14.69;37.58;101135.42;1653345;87;21370;-62
2021/03/27 06:45:04;;;;;;;20.95;14.25;;;;;;;15.01;37.40;101138.20;1653243;86;21304;-64
2021/03/27 06:47:43;;;;;;;20.50;13.10;;;;;;;15.37;36.80;101143.50;1654183;86;21189;-66
2021/03/27 06:50:35;;;;;;;23.62;14.45;;;;;;;16.19;35.73;101148.25;1653874;87;21338;-67
2021/03/27 06:53:22;;;;;;;19.87;13.18;;;;;;;17.05;34.46;101142.67;1652130;87;21395;-61
2021/03/27 06:56:33;;;;;;;20.88;14.20;;;;;;;18.25;32.99;101143.30;1650627;86;21247;-64
2021/03/27 06:59:24;;;;;;;20.95;13.53;;;;;;;18.80;31.86;101140.36;1650606;87;21231;-63
2021/03/27 07:02:07;;;;;;;19.70;13.85;;;;;;;18.86;31.43;101146.83;1651124;86;21196;-63
2021/03/27 07:04:54;;;;;;;26.60;17.85;;;;;;;19.03;31.07;101141.34;1658081;84;21271;-64
2021/03/27 07:12:19;;;;;;;19.98;13.90;;;;;;;20.31;29.54;101143.60;1677943;85;21220;-64
2021/03/27 07:15:35;;;;;;;20.85;15.03;;;;;;;21.16;28.25;101136.52;1657079;84;21320;-63
2021/03/27 07:18:45;;;;;;;29.42;21.05;;;;;;;21.85;26.95;101137.84;1663628;85;21331;-67
2021/03/27 07:22:06;;;;;;;25.50;15.95;;;;;;;22.11;26.50;101136.80;1673888;84;21299;-63
2021/03/27 07:25:15;;;;;;;24.60;20.08;;;;;;;22.59;25.74;101136.53;1649741;87;21598;-62
2021/03/27 07:28:02;;;;;;;34.85;25.82;;;;;;;22.95;25.08;101127.62;1595368;89;21313;-64
2021/03/27 07:30:54;;;;;;;40.10;29.15;;;;;;;24.01;23.61;101129.25;1634868;87;21586;-64
2021/03/27 07:34:03;;;;;;;115.30;81.67;;;;;;;24.01;23.61;101129.25;1638135;87;22162;-63
2021/03/27 07:36:42;;;;;;;33.63;23.22;;;;;;;24.39;22.97;101139.73;1661095;86;21471;-64
2021/03/27 07:39:45;;;;;;;27.10;22.05;;;;;;;24.49;22.54;101138.00;1637826;86;21269;-64
2021/03/27 07:42:22;;;;;;;29.40;23.30;;;;;;;24.80;22.40;101136.89;1638125;86;22039;-66
2021/03/27 07:45:20;;;;;;;19.85;14.55;;;;;;;25.07;22.04;101133.67;1638546;87;21342;-63
2021/03/27 07:48:16;;;;;;;34.25;28.17;;;;;;;24.83;22.39;101132.47;1638226;87;21351;-62
2021/03/27 07:51:21;;;;;;;22.00;15.45;;;;;;;24.15;22.66;101134.14;1637320;87;21633;-64
2021/03/27 07:54:38;;;;;;;21.50;15.53;;;;;;;22.92;23.63;101130.67;1638234;87;22105;-64
2021/03/27 07:57:40;;;;;;;36.53;19.40;;;;;;;21.74;24.82;101138.81;1638738;87;21399;-63
2021/03/27 08:04:54;;;;;;;19.25;14.65;;;;;;;20.18;27.02;101136.17;1573988;87;21365;-62
2021/03/27 08:07:53;;;;;;;25.75;14.68;;;;;;;19.38;28.28;101142.75;1648988;87;21212;-60
2021/03/27 08:10:52;;;;;;;25.45;18.90;;;;;;;18.81;28.89;101138.05;1650116;87;21615;-62
2021/03/27 08:13:42;;;;;;;24.85;18.75;;;;;;;18.52;29.61;101140.38;1648702;87;21966;-65
2021/03/27 08:16:56;;;;;;;24.98;15.20;;;;;;;18.19;30.24;101144.81;1649783;87;21319;-65
2021/03/27 08:19:48;;;;;;;23.12;14.85;;;;;;;18.08;30.26;101140.64;1629329;87;21474;-61
2021/03/27 08:23:00;;;;;;;22.32;15.50;;;;;;;18.09;30.50;101138.83;1649192;87;21395;-63
2021/03/27 08:26:09;;;;;;;23.50;14.90;;;;;;;18.23;30.33;101143.97;1650378;87;21984;-63
2021/03/27 08:28:48;;;;;;;21.27;15.70;;;;;;;18.91;30.02;101133.89;1649371;87;21296;-65
2021/03/27 08:32:07;;;;;;;18.02;12.80;;;;;;;20.09;28.65;101136.74;1649581;87;22059;-62
2021/03/27 08:35:07;;;;;;;18.02;13.40;;;;;;;21.06;27.46;101128.00;1649785;87;21339;-61
2021/03/27 08:38:11;;;;;;;19.87;13.68;;;;;;;21.95;26.19;101125.05;1649130;87;21238;-67
2021/03/27 08:41:13;;;;;;;24.90;12.70;;;;;;;22.62;25.39;101122.84;1650296;87;21399;-66
2021/03/27 08:43:58;;;;;;;14.93;10.77;;;;;;;22.87;24.79;101122.41;1650323;87;21367;-71
2021/03/27 08:47:16;;;;;;;18.92;12.68;;;;;;;23.22;24.15;101114.21;1649201;87;22152;-69
2021/03/27 08:50:26;;;;;;;20.62;12.68;;;;;;;23.22;24.15;101114.21;1650447;87;22055;-70
2021/03/27 08:53:34;;;;;;;19.52;12.45;;;;;;;23.90;23.94;101117.31;1615379;87;22121;-66
2021/03/27 08:56:41;;;;;;;20.23;16.02;;;;;;;24.41;23.63;101114.13;1638653;87;22111;-66
2021/03/27 08:59:44;;;;;;;15.13;11.48;;;;;;;24.79;22.59;101121.05;1637819;87;22129;-62
2021/03/27 09:03:03;;;;;;;39.95;28.45;;;;;;;24.84;22.90;101101.95;1621861;87;21335;-65
2021/03/27 09:06:08;;;;;;;17.87;14.07;;;;;;;24.90;23.04;101109.69;1622607;87;21220;-67
2021/03/27 09:08:50;;;;;;;29.95;20.57;;;;;;;24.86;22.09;101112.48;1616140;87;21249;-67
2021/03/27 09:11:33;;;;;;;22.85;16.57;;;;;;;24.49;22.16;101109.38;1624741;87;21310;-66
2021/03/27 09:14:41;;;;;;;12.98;8.50;;;;;;;23.95;23.18;101111.35;1638225;87;21335;-65
2021/03/27 09:17:31;;;;;;;14.80;11.78;;;;;;;23.80;23.55;101108.02;1637936;87;21351;-68
2021/03/27 09:20:35;;;;;;;13.53;9.43;;;;;;;23.80;23.63;101106.16;1639026;87;21326;-60
2021/03/27 09:23:18;;;;;;;18.45;15.78;;;;;;;23.87;24.04;101106.17;1637583;87;21347;-66
2021/03/27 09:26:13;;;;;;;16.02;9.43;;;;;;;23.84;23.18;101103.39;1637761;87;22177;-66
2021/03/27 09:29:06;;;;;;;14.13;9.00;;;;;;;23.55;23.72;101109.05;1638482;87;21228;-62
2021/03/27 09:32:06;;;;;;;13.18;9.58;;;;;;;23.26;24.13;101110.66;1620598;88;21268;-68
2021/03/27 09:35:10;;;;;;;11.57;8.05;;;;;;;23.04;24.51;101115.75;1616194;88;21223;-65
2021/03/27 09:38:04;;;;;;;13.98;7.80;;;;;;;22.70;24.57;101114.70;1649918;87;21402;-66
2021/03/27 09:41:12;;;;;;;11.25;8.43;;;;;;;22.16;25.15;101119.42;1650304;87;21568;-61
2021/03/27 09:44:23;;;;;;;11.85;8.30;;;;;;;22.03;25.26;101116.94;1649347;87;22195;-65
2021/03/27 09:47:10;;;;;;;11.78;7.95;;;;;;;21.88;25.82;101116.16;1650044;87;21347;-65
2021/03/27 09:50:26;;;;;;;12.78;7.40;;;;;;;21.20;25.91;101117.86;1633744;87;21343;-66
2021/03/27 09:53:46;;;;;;;14.58;8.50;;;;;;;20.57;26.73;101113.47;1649894;87;21216;-63
2021/03/27 09:56:38;;;;;;;11.40;8.00;;;;;;;20.20;27.56;101111.59;1639089;87;21331;-61
2021/03/27 09:59:47;;;;;;;12.63;9.45;;;;;;;20.02;28.09;101113.20;1638314;87;21743;-60
2021/03/27 10:02:31;;;;;;;23.27;16.93;;;;;;;19.76;28.39;101115.84;1637711;87;21339;-67
2021/03/27 10:05:17;;;;;;;22.13;13.55;;;;;;;19.44;28.68;101115.50;1638806;87;21543;-64
2021/03/27 10:08:18;;;;;;;22.27;14.20;;;;;;;18.73;29.19;101120.31;1620928;87;21443;-65
2021/03/27 10:11:16;;;;;;;18.45;12.13;;;;;;;17.97;30.19;101126.88;1624567;87;21212;-67
2021/03/27 10:14:00;;;;;;;39.63;8.55;;;;;;;17.60;31.26;101129.91;1623212;88;21267;-65
2021/03/27 10:17:10;;;;;;;21.00;13.98;;;;;;;17.41;31.70;101132.28;1625055;87;21326;-61
2021/03/27 10:19:57;;;;;;;11.08;7.50;;;;;;;17.13;32.29;101126.02;1624246;88;21232;-61
2021/03/27 10:22:55;;;;;;;12.90;7.62;;;;;;;16.89;32.52;101123.23;1625207;87;21428;-62
2021/03/27 10:25:45;;;;;;;9.78;6.12;;;;;;;16.69;32.67;101125.27;1611222;87;21217;-65
2021/03/27 10:28:29;;;;;;;9.63;7.40;;;;;;;16.66;32.91;101124.24;1623514;87;21227;-64
2021/03/27 10:31:16;;;;;;;11.78;7.62;;;;;;;16.77;33.16;101122.66;1624435;88;21378;-67
2021/03/27 10:34:03;;;;;;;15.95;10.00;;;;;;;16.79;33.11;101124.65;1623248;87;21307;-67
2021/03/27 10:37:18;;;;;;;9.85;6.55;;;;;;;16.65;33.56;101124.73;1624822;87;21362;-66
2021/03/27 10:40:07;;;;;;;9.35;6.30;;;;;;;16.42;33.59;101126.17;1624258;88;21477;-64
2021/03/27 10:42:57;;;;;;;15.18;8.63;;;;;;;16.07;34.01;101130.15;1636916;86;21195;-64
2021/03/27 10:45:53;;;;;;;14.05;9.33;;;;;;;15.89;34.62;101135.40;1641642;85;21212;-64
2021/03/27 10:48:43;;;;;;;13.55;7.42;;;;;;;15.67;35.13;101129.20;1650614;87;21227;-61
2021/03/27 10:51:54;;;;;;;13.10;6.42;;;;;;;15.54;35.02;101131.85;1650768;85;22048;-64
2021/03/27 10:55:04;;;;;;;10.03;6.75;;;;;;;15.42;35.06;101136.47;1650196;87;21215;-63
2021/03/27 10:58:21;;;;;;;11.65;6.75;;;;;;;15.42;35.52;101132.50;1650502;84;21212;-62
2021/03/27 11:01:38;;;;;;;11.55;8.80;;;;;;;15.45;35.59;101140.17;1649884;87;21181;-63
2021/03/27 11:04:59;;;;;;;11.05;6.20;;;;;;;15.17;35.63;101143.22;1652025;85;21208;-61
2021/03/27 11:07:59;;;;;;;9.03;6.03;;;;;;;14.89;35.58;101144.13;1649989;87;21191;-62
2021/03/27 11:11:10;;;;;;;10.75;6.40;;;;;;;14.72;35.90;101150.96;1651013;85;21228;-62
2021/03/27 11:14:16;;;;;;;8.95;6.22;;;;;;;14.57;36.47;101154.16;1651804;85;21228;-62
2021/03/27 11:17:41;;;;;;;13.80;7.55;;;;;;;14.49;36.79;101154.04;1649747;87;21537;-64
2021/03/27 11:20:34;;;;;;;13.98;7.12;;;;;;;14.49;37.26;101155.35;1650434;85;21284;-63
2021/03/27 11:23:42;;;;;;;8.65;5.85;;;;;;;14.43;37.37;101154.58;1651623;85;21176;-61
2021/03/27 11:26:51;;;;;;;13.90;8.23;;;;;;;14.38;37.20;101159.42;1651165;87;21211;-63
2021/03/27 11:30:04;;;;;;;21.52;14.25;;;;;;;14.26;38.07;101164.48;1650551;87;21223;-66
2021/03/27 11:32:59;;;;;;;13.20;7.25;;;;;;;14.04;38.31;101165.05;1649671;86;21220;-61
2021/03/27 11:35:45;;;;;;;21.77;8.43;;;;;;;13.85;38.40;101158.94;1650420;86;21993;-65
2021/03/27 11:38:41;;;;;;;14.03;7.00;;;;;;;13.81;38.53;101163.63;1651710;85;21211;-66
2021/03/27 11:41:36;;;;;;;19.40;10.88;;;;;;;13.72;38.02;101166.23;1650637;86;22049;-63
2021/03/27 11:44:52;;;;;;;23.95;16.77;;;;;;;13.57;38.40;101161.81;1651020;85;21926;-66
2021/03/27 11:47:48;;;;;;;13.55;8.85;;;;;;;13.49;38.83;101169.05;1652010;85;22046;-65
2021/03/27 11:50:53;;;;;;;11.88;7.15;;;;;;;13.43;38.65;101171.39;1649902;87;21501;-62
2021/03/27 11:53:51;;;;;;;;;;;;;;;13.31;39.01;101171.12;1652541;85;21208;-68
2021/03/27 11:56:58;;;;;;;11.33;6.95;;;;;;;13.23;39.42;101167.02;1651290;87;20334;-70
2021/03/27 12:02:57;;;;;;;10.93;7.35;;;;;;;13.13;39.83;101170.91;1650816;85;21212;-70
2021/03/27 12:05:48;;;;;;;8.63;5.62;;;;;;;13.12;40.02;101167.08;1651094;85;21236;-67
2021/03/27 12:08:28;;;;;;;8.90;5.55;;;;;;;13.12;40.13;101166.60;1650156;85;21196;-65
2021/03/27 12:15:33;;;;;;;9.00;4.85;;;;;;;13.17;39.84;101162.27;1652516;85;21893;-66
2021/03/27 12:18:37;;;;;;;9.30;5.62;;;;;;;13.13;39.72;101159.08;1650092;85;21271;-64
2021/03/27 12:21:20;;;;;;;11.70;4.97;;;;;;;13.20;39.79;101157.59;1651337;85;21243;-64
2021/03/27 12:24:17;;;;;;;17.37;5.72;;;;;;;13.33;39.46;101164.77;1651588;87;21998;-64
2021/03/27 12:27:24;;;;;;;8.60;4.55;;;;;;;13.36;38.82;101172.87;1651666;85;21215;-65
2021/03/27 12:30:35;;;;;;;9.70;5.75;;;;;;;13.27;38.59;101171.88;1650940;87;21216;-65
2021/03/27 12:33:19;;;;;;;6.12;4.37;;;;;;;13.14;39.40;101171.25;1651610;85;21419;-66
2021/03/27 12:35:57;;;;;;;7.58;4.42;;;;;;;13.08;39.29;101169.15;1660380;86;21359;-61
2021/03/27 12:39:08;;;;;;;8.68;4.90;;;;;;;13.02;39.79;101176.66;1666400;86;21316;-67
2021/03/27 12:41:49;;;;;;;9.80;5.00;;;;;;;12.94;40.33;101186.53;1665760;86;21221;-66
2021/03/27 12:44:35;;;;;;;22.62;5.85;;;;;;;12.88;40.25;101184.88;1666369;86;21500;-67
2021/03/27 12:47:42;;;;;;;11.93;7.10;;;;;;;12.83;40.35;101174.28;1645359;86;21475;-68
2021/03/27 12:50:39;;;;;;;9.28;5.40;;;;;;;12.86;40.40;101181.08;1665007;84;21393;-69
2021/03/27 12:53:42;;;;;;;7.53;5.20;;;;;;;12.90;40.31;101185.11;1599756;88;21213;-68
2021/03/27 12:56:44;;;;;;;12.10;7.10;;;;;;;12.91;40.64;101184.62;1653477;85;21509;-67
2021/03/27 12:59:35;;;;;;;8.33;5.80;;;;;;;12.84;40.15;101182.53;1652951;86;21341;-67
2021/03/27 13:02:18;;;;;;;8.78;4.50;;;;;;;12.77;39.82;101177.44;1653595;86;21333;-66
2021/03/27 13:05:27;;;;;;;10.23;4.65;;;;;;;12.72;39.97;101184.86;1651031;86;21244;-68
2021/03/27 13:08:29;;;;;;;6.58;3.77;;;;;;;12.68;40.10;101183.94;1654291;86;21259;-66
2021/03/27 13:11:17;;;;;;;6.03;4.10;;;;;;;12.57;40.21;101186.12;1650411;85;21281;-69
2021/03/27 13:14:26;;;;;;;9.93;4.72;;;;;;;12.49;40.14;101185.90;1650325;85;21223;-68
2021/03/27 13:17:06;;;;;;;8.63;4.70;;;;;;;12.46;40.38;101187.48;1651169;87;21215;-69
2021/03/27 13:19:42;;;;;;;7.58;4.67;;;;;;;12.49;40.61;101191.16;1650095;87;21233;-67
2021/03/27 13:22:36;;;;;;;6.37;4.42;;;;;;;12.54;40.43;101191.61;1648567;87;21550;-67
2021/03/27 13:25:43;;;;;;;5.83;3.90;;;;;;;12.61;40.59;101186.20;1649761;86;21478;-66
2021/03/27 13:28:41;;;;;;;9.03;3.90;;;;;;;12.69;39.85;101184.27;1627171;87;21298;-69
2021/03/27 13:31:20;;;;;;;9.60;3.60;;;;;;;12.74;39.45;101189.98;1630785;87;21304;-68
2021/03/27 13:34:12;;;;;;;6.47;3.75;;;;;;;12.67;39.33;101191.45;1641474;84;21842;-69
2021/03/27 13:37:16;;;;;;;5.33;3.47;;;;;;;12.55;39.37;101185.89;1631089;84;22081;-69
2021/03/27 13:39:54;;;;;;;5.35;3.20;;;;;;;12.43;39.40;101201.33;1629492;86;21318;-66
2021/03/27 13:42:49;;;;;;;7.60;3.60;;;;;;;12.34;39.53;101204.24;1631134;87;21314;-68